createdAt,value
2023-01-17T00:02:20.301Z,173.30
2023-01-17T00:05:08.035Z,174.37
2023-01-17T00:07:54.395Z,172.17
2023-01-17T00:10:25.784Z,167.07
2023-01-17T00:12:56.692Z,166.93
2023-01-17T00:15:27.120Z,170.03
2023-01-17T00:17:56.226Z,159.73
2023-01-17T00:20:45.313Z,186.13
2023-01-17T00:23:33.896Z,188.83
2023-01-17T00:26:05.922Z,196.57
2023-01-17T00:28:35.486Z,214.90
2023-01-17T00:31:03.843Z,182.87
2023-01-17T00:33:32.018Z,168.90
2023-01-17T00:36:02.725Z,132.97
2023-01-17T00:38:32.025Z,169.60
2023-01-17T00:41:02.863Z,186.27
2023-01-17T00:43:49.648Z,140.90
2023-01-17T00:46:36.380Z,191.70
2023-01-17T00:49:23.441Z,194.63
2023-01-17T00:52:11.270Z,240.90
2023-01-17T00:54:57.487Z,252.73
2023-01-17T00:57:43.651Z,230.40
2023-01-17T01:00:31.039Z,209.87
2023-01-17T01:03:17.106Z,231.23
2023-01-17T01:06:03.241Z,183.97
2023-01-17T01:08:50.979Z,159.40
2023-01-17T01:11:39.238Z,146.77
2023-01-17T01:14:26.848Z,120.83
2023-01-17T01:17:13.328Z,122.47
2023-01-17T01:19:59.513Z,108.10
2023-01-17T01:22:45.700Z,105.23
2023-01-17T01:25:33.427Z,118.73
2023-01-17T01:28:24.324Z,116.03
2023-01-17T01:31:10.605Z,138.10
2023-01-17T01:33:40.057Z,75.93
2023-01-17T01:36:10.278Z,71.10
2023-01-17T01:38:39.901Z,78.33
2023-01-17T01:41:10.576Z,87.30
2023-01-17T01:43:46.567Z,82.90
2023-01-17T01:46:19.297Z,73.43
2023-01-17T01:48:51.917Z,71.90
2023-01-17T01:51:27.221Z,77.00
2023-01-17T01:54:01.520Z,68.33
2023-01-17T01:56:33.206Z,62.90
2023-01-17T01:59:05.611Z,75.20
2023-01-17T02:01:37.763Z,76.47
2023-01-17T02:04:10.309Z,76.13
2023-01-17T02:06:43.163Z,76.83
2023-01-17T02:09:15.540Z,56.47
2023-01-17T02:11:48.278Z,65.20
2023-01-17T02:14:18.110Z,73.57
2023-01-17T02:16:58.276Z,79.63
2023-01-17T02:19:53.111Z,72.33
2023-01-17T02:22:49.529Z,174.67
2023-01-17T02:25:46.108Z,85.17
2023-01-17T02:28:40.252Z,86.67
2023-01-17T02:31:15.492Z,60.90
2023-01-17T02:33:51.493Z,58.43
2023-01-17T02:36:24.717Z,55.30
2023-01-17T02:38:58.669Z,55.77
2023-01-17T02:41:32.565Z,47.60
2023-01-17T02:44:04.498Z,53.17
2023-01-17T02:46:34.925Z,49.50
2023-01-17T02:49:03.942Z,49.83
2023-01-17T02:51:46.285Z,41.97
2023-01-17T02:54:37.569Z,43.00
2023-01-17T02:57:26.039Z,45.13
2023-01-17T03:00:02.350Z,46.23
2023-01-17T03:02:42.357Z,46.67
2023-01-17T03:05:14.043Z,53.63
2023-01-17T03:07:44.677Z,51.43
2023-01-17T03:10:16.449Z,44.30
2023-01-17T03:12:46.129Z,40.10
2023-01-17T03:15:18.195Z,42.87
2023-01-17T03:17:51.045Z,79.57
2023-01-17T03:20:22.493Z,52.03
2023-01-17T03:22:51.679Z,52.00
2023-01-17T03:25:20.529Z,52.30
2023-01-17T03:27:49.563Z,66.07
2023-01-17T03:30:20.603Z,59.03
2023-01-17T03:32:51.404Z,63.80
2023-01-17T03:35:20.423Z,96.33
2023-01-17T03:37:49.371Z,104.83
2023-01-17T03:40:18.775Z,103.33
2023-01-17T03:42:47.828Z,120.70
2023-01-17T03:45:16.898Z,110.53
2023-01-17T03:47:45.817Z,138.80
2023-01-17T03:50:16.402Z,108.23
2023-01-17T03:52:45.364Z,148.87
2023-01-17T03:55:14.361Z,133.43
2023-01-17T03:57:43.309Z,136.90
2023-01-17T04:00:13.896Z,182.37
2023-01-17T04:02:43.043Z,121.60
2023-01-17T04:05:12.136Z,103.00
2023-01-17T04:07:43.828Z,111.13
2023-01-17T04:10:13.160Z,67.43
2023-01-17T04:12:42.071Z,57.73
2023-01-17T04:15:11.743Z,40.93
2023-01-17T04:17:40.855Z,65.07
2023-01-17T04:20:15.241Z,58.97
2023-01-17T04:22:45.668Z,51.43
2023-01-17T04:25:14.871Z,84.73
2023-01-17T04:27:43.744Z,53.97
2023-01-17T04:30:14.055Z,58.53
2023-01-17T04:33:02.358Z,52.60
2023-01-17T04:35:33.595Z,49.13
2023-01-17T04:38:04.271Z,60.17
2023-01-17T04:40:33.238Z,101.43
2023-01-17T04:43:02.284Z,89.80
2023-01-17T04:45:31.284Z,64.77
2023-01-17T04:48:05.827Z,92.80
2023-01-17T04:50:35.330Z,41.80
2023-01-17T04:53:05.762Z,46.33
2023-01-17T04:55:34.865Z,49.47
2023-01-17T04:58:03.792Z,44.73
2023-01-17T05:00:32.716Z,45.10
2023-01-17T05:03:01.832Z,43.77
2023-01-17T05:05:31.519Z,44.87
2023-01-17T05:08:00.742Z,46.10
2023-01-17T05:10:31.079Z,50.63
2023-01-17T05:13:01.131Z,49.07
2023-01-17T05:15:30.118Z,40.23
2023-01-17T05:17:59.101Z,57.37
2023-01-17T05:20:28.719Z,51.27
2023-01-17T05:22:58.854Z,38.63
2023-01-17T05:25:29.879Z,65.73
2023-01-17T05:28:01.342Z,39.37
2023-01-17T05:30:31.604Z,44.73
2023-01-17T05:33:00.945Z,56.80
2023-01-17T05:35:32.776Z,95.30
2023-01-17T05:38:01.966Z,156.43
2023-01-17T05:40:33.145Z,139.50
2023-01-17T05:43:04.870Z,76.00
2023-01-17T05:45:35.046Z,55.43
2023-01-17T05:48:04.840Z,83.60
2023-01-17T05:50:35.357Z,70.27
2023-01-17T05:53:06.216Z,63.70
2023-01-17T05:55:54.026Z,83.37
2023-01-17T05:58:24.793Z,89.07
2023-01-17T06:00:56.945Z,116.60
2023-01-17T06:03:26.136Z,135.83
2023-01-17T06:05:55.070Z,117.20
2023-01-17T06:08:23.997Z,91.93
2023-01-17T06:10:52.928Z,77.63
2023-01-17T06:13:22.165Z,95.73
2023-01-17T06:15:52.583Z,90.87
2023-01-17T06:18:21.759Z,103.27
2023-01-17T06:20:54.643Z,151.97
2023-01-17T06:23:25.276Z,122.37
2023-01-17T06:25:54.230Z,98.30
2023-01-17T06:28:24.949Z,106.50
2023-01-17T06:30:55.374Z,90.50
2023-01-17T06:33:24.842Z,75.17
2023-01-17T06:35:54.650Z,78.37
2023-01-17T06:38:23.617Z,56.20
2023-01-17T06:40:52.999Z,51.17
2023-01-17T06:43:22.071Z,134.60
2023-01-17T06:45:51.442Z,133.90
2023-01-17T06:48:21.883Z,89.77
2023-01-17T06:50:51.165Z,62.87
2023-01-17T06:53:20.140Z,67.23
2023-01-17T06:55:49.088Z,66.60
2023-01-17T06:58:17.981Z,59.30
2023-01-17T07:00:47.148Z,41.07
2023-01-17T07:03:22.900Z,34.37
2023-01-17T07:05:52.294Z,36.43
2023-01-17T07:08:22.019Z,38.43
2023-01-17T07:10:51.220Z,51.53
2023-01-17T07:13:20.179Z,40.57
2023-01-17T07:15:49.289Z,64.40
2023-01-17T07:18:20.804Z,59.63
2023-01-17T07:20:51.652Z,32.13
2023-01-17T07:23:21.917Z,34.40
2023-01-17T07:25:53.868Z,27.87
2023-01-17T07:28:23.081Z,18.93
2023-01-17T07:30:52.072Z,19.77
2023-01-17T07:33:21.732Z,22.30
2023-01-17T07:35:52.043Z,77.10
2023-01-17T07:38:22.033Z,17.40
2023-01-17T07:40:51.135Z,34.70
2023-01-17T07:43:20.119Z,31.43
2023-01-17T07:45:51.379Z,31.23
2023-01-17T07:48:21.370Z,12.53
2023-01-17T07:50:56.157Z,15.80
2023-01-17T07:53:26.217Z,9.17
2023-01-17T07:55:55.865Z,5.53
2023-01-17T07:58:24.810Z,24.63
2023-01-17T08:00:53.886Z,23.20
2023-01-17T08:03:22.804Z,54.27
2023-01-17T08:05:57.970Z,53.60
2023-01-17T08:08:27.109Z,62.43
2023-01-17T08:10:56.055Z,23.77
2023-01-17T08:13:25.393Z,14.80
2023-01-17T08:15:54.765Z,21.90
2023-01-17T08:18:23.686Z,21.50
2023-01-17T08:20:52.520Z,22.93
2023-01-17T08:23:23.728Z,25.20
2023-01-17T08:25:52.741Z,53.37
2023-01-17T08:28:21.660Z,59.13
2023-01-17T08:30:50.630Z,60.40
2023-01-17T08:33:19.778Z,41.23
2023-01-17T08:35:54.875Z,57.10
2023-01-17T08:38:25.727Z,54.17
2023-01-17T08:40:55.056Z,46.80
2023-01-17T08:43:24.084Z,27.03
2023-01-17T08:45:56.192Z,23.50
2023-01-17T08:48:25.573Z,31.73
2023-01-17T08:50:54.546Z,29.43
2023-01-17T08:53:24.968Z,31.50
2023-01-17T08:56:00.582Z,22.93
2023-01-17T08:58:31.046Z,22.60
2023-01-17T09:01:02.826Z,16.83
2023-01-17T09:03:32.720Z,16.93
2023-01-17T09:06:06.570Z,44.13
2023-01-17T09:08:37.639Z,6.97
2023-01-17T09:11:07.011Z,12.27
2023-01-17T09:13:36.432Z,15.30
2023-01-17T09:16:07.299Z,10.27
2023-01-17T09:18:38.175Z,21.33
2023-01-17T09:21:14.735Z,21.97
2023-01-17T09:23:46.018Z,8.80
2023-01-17T09:26:20.419Z,21.80
2023-01-17T09:28:49.839Z,23.10
2023-01-17T09:31:21.314Z,16.50
2023-01-17T09:33:50.540Z,12.63
2023-01-17T09:36:19.780Z,10.53
2023-01-17T09:38:50.544Z,8.03
2023-01-17T09:41:27.841Z,5.77
2023-01-17T09:44:06.352Z,4.93
2023-01-17T09:46:40.470Z,8.87
2023-01-17T09:49:14.482Z,6.70
2023-01-17T09:51:45.030Z,5.83
2023-01-17T09:54:21.864Z,5.77
2023-01-17T09:56:58.851Z,7.07
2023-01-17T09:59:34.997Z,10.93
2023-01-17T10:02:19.260Z,8.43
2023-01-17T10:05:00.377Z,6.57
2023-01-17T10:07:42.050Z,5.40
2023-01-17T10:10:36.322Z,6.27
2023-01-17T10:13:15.708Z,2.70
2023-01-17T10:15:55.617Z,5.97
2023-01-17T10:18:44.371Z,6.40
2023-01-17T10:21:22.967Z,7.97
2023-01-17T10:24:16.849Z,7.70
2023-01-17T10:26:51.455Z,5.63
2023-01-17T10:29:22.152Z,7.23
2023-01-17T10:31:55.945Z,8.13
2023-01-17T10:34:29.699Z,45.03
2023-01-17T10:37:05.032Z,8.37
2023-01-17T10:39:34.466Z,6.40
2023-01-17T10:42:14.420Z,18.67
2023-01-17T10:44:50.184Z,12.87
2023-01-17T10:47:22.363Z,10.63
2023-01-17T10:49:54.631Z,6.07
2023-01-17T10:52:36.395Z,7.53
2023-01-17T10:55:22.417Z,11.20
2023-01-17T10:57:54.749Z,14.50
2023-01-17T11:00:44.131Z,7.87
2023-01-17T11:03:14.438Z,8.00
2023-01-17T11:05:44.879Z,18.53
2023-01-17T11:08:15.531Z,16.10
2023-01-17T11:10:47.349Z,18.83
2023-01-17T11:13:27.807Z,8.93
2023-01-17T11:15:59.087Z,14.70
2023-01-17T11:18:31.145Z,13.17
2023-01-17T11:21:18.038Z,7.77
2023-01-17T11:23:48.513Z,7.17
2023-01-17T11:26:26.427Z,9.13
2023-01-17T11:29:16.374Z,6.97
2023-01-17T11:31:45.415Z,10.57
2023-01-17T11:34:19.527Z,10.37
2023-01-17T11:36:50.165Z,5.97
2023-01-17T11:39:30.087Z,14.27
2023-01-17T11:41:59.136Z,9.10
2023-01-17T11:44:31.538Z,10.07
2023-01-17T11:47:15.945Z,13.70
2023-01-17T11:49:46.378Z,6.93
2023-01-17T11:52:24.564Z,7.73
2023-01-17T11:54:55.760Z,27.47
2023-01-17T11:57:28.697Z,15.90
2023-01-17T12:00:11.953Z,3.97
2023-01-17T12:03:14.086Z,12.43
2023-01-17T12:05:54.928Z,5.93
2023-01-17T12:08:45.304Z,16.40
2023-01-17T12:11:18.079Z,26.33
2023-01-17T12:14:01.685Z,24.03
2023-01-17T12:16:55.349Z,20.70
2023-01-17T12:19:41.431Z,28.13
2023-01-17T12:22:53.789Z,14.90
2023-01-17T12:25:39.859Z,5.70
2023-01-17T12:28:20.852Z,6.47
2023-01-17T12:31:04.612Z,4.70
2023-01-17T12:33:47.204Z,8.43
2023-01-17T12:36:31.180Z,14.67
2023-01-17T12:39:03.777Z,19.00
2023-01-17T12:41:36.862Z,4.50
2023-01-17T12:44:06.511Z,7.80
2023-01-17T12:46:39.447Z,6.87
2023-01-17T12:49:24.589Z,8.27
2023-01-17T12:52:19.010Z,3.67
2023-01-17T12:54:51.903Z,6.07
2023-01-17T12:57:24.739Z,9.10
2023-01-17T12:59:59.895Z,4.93
2023-01-17T13:02:37.569Z,11.87
2023-01-17T13:05:12.921Z,5.03
2023-01-17T13:07:49.340Z,5.63
2023-01-17T13:10:26.556Z,51.43
2023-01-17T13:12:59.443Z,18.60
2023-01-17T13:15:35.473Z,9.63
2023-01-17T13:18:10.952Z,4.40
2023-01-17T13:21:08.481Z,8.47
2023-01-17T13:24:03.482Z,8.27
2023-01-17T13:26:46.786Z,16.57
2023-01-17T13:29:28.747Z,7.63
2023-01-17T13:32:04.593Z,16.77
2023-01-17T13:34:51.142Z,20.47
2023-01-17T13:37:47.421Z,5.70
2023-01-17T13:40:34.459Z,4.30
2023-01-17T13:43:06.339Z,7.30
2023-01-17T13:45:37.749Z,5.43
2023-01-17T13:48:27.922Z,13.70
2023-01-17T13:50:57.983Z,43.37
2023-01-17T13:53:59.735Z,39.50
2023-01-17T13:56:31.473Z,14.70
2023-01-17T13:59:28.595Z,17.07
2023-01-17T14:01:58.315Z,18.53
2023-01-17T14:05:05.941Z,26.83
2023-01-17T14:07:37.051Z,25.10
2023-01-17T14:10:38.697Z,16.80
2023-01-17T14:13:34.210Z,12.60
2023-01-17T14:16:07.006Z,9.10
2023-01-17T14:18:40.938Z,13.00
2023-01-17T14:21:15.312Z,8.20
2023-01-17T14:24:01.075Z,13.57
2023-01-17T14:26:46.850Z,11.43
2023-01-17T14:29:52.846Z,11.30
2023-01-17T14:32:25.232Z,18.93
2023-01-17T14:34:55.473Z,10.80
2023-01-17T14:37:43.633Z,12.20
2023-01-17T14:40:18.228Z,10.53
2023-01-17T14:42:48.881Z,15.00
2023-01-17T14:45:24.851Z,29.67
2023-01-17T14:47:57.031Z,59.47
2023-01-17T14:50:29.471Z,40.77
2023-01-17T14:53:28.451Z,24.73
2023-01-17T14:56:00.649Z,16.40
2023-01-17T14:58:31.648Z,14.63
2023-01-17T15:01:03.657Z,11.77
2023-01-17T15:03:37.186Z,11.20
2023-01-17T15:06:13.625Z,18.27
2023-01-17T15:08:43.330Z,18.00
2023-01-17T15:11:19.733Z,15.60
2023-01-17T15:13:51.607Z,22.43
2023-01-17T15:16:24.905Z,12.77
2023-01-17T15:18:57.463Z,15.03
2023-01-17T15:21:29.668Z,12.73
2023-01-17T15:24:00.302Z,17.20
2023-01-17T15:26:33.795Z,12.17
2023-01-17T15:29:06.486Z,26.87
2023-01-17T15:31:44.550Z,13.70
2023-01-17T15:34:26.321Z,15.77
2023-01-17T15:36:57.601Z,16.43
2023-01-17T15:39:30.480Z,17.80
2023-01-17T15:42:01.096Z,10.33
2023-01-17T15:44:48.212Z,12.50
2023-01-17T15:47:29.972Z,12.33
2023-01-17T15:50:01.167Z,7.33
2023-01-17T15:52:30.837Z,16.57
2023-01-17T15:55:12.740Z,11.17
2023-01-17T15:57:44.278Z,18.43
2023-01-17T16:00:22.278Z,14.73
2023-01-17T16:02:55.596Z,8.70
2023-01-17T16:05:44.750Z,7.83
2023-01-17T16:08:38.609Z,9.83
2023-01-17T16:11:09.396Z,5.17
2023-01-17T16:13:42.446Z,6.93
2023-01-17T16:16:20.331Z,14.20
2023-01-17T16:18:50.653Z,15.90
2023-01-17T16:21:24.613Z,26.70
2023-01-17T16:23:53.977Z,5.47
2023-01-17T16:26:23.395Z,8.50
2023-01-17T16:28:53.008Z,11.53
2023-01-17T16:31:22.285Z,32.93
2023-01-17T16:33:52.063Z,11.03
2023-01-17T16:36:23.173Z,8.37
2023-01-17T16:38:53.336Z,7.77
2023-01-17T16:41:23.023Z,9.20
2023-01-17T16:44:00.684Z,18.97
2023-01-17T16:46:30.717Z,11.10
2023-01-17T16:49:02.134Z,4.77
2023-01-17T16:51:33.277Z,9.03
2023-01-17T16:54:03.256Z,6.30
2023-01-17T16:56:32.461Z,6.03
2023-01-17T16:59:01.439Z,6.63
2023-01-17T17:01:30.442Z,6.40
2023-01-17T17:03:59.428Z,14.73
2023-01-17T17:06:28.435Z,9.57
2023-01-17T17:09:00.619Z,10.47
2023-01-17T17:11:29.700Z,12.77
2023-01-17T17:13:58.628Z,9.33
2023-01-17T17:16:30.122Z,9.53
2023-01-17T17:19:00.737Z,11.90
2023-01-17T17:21:30.813Z,15.37
2023-01-17T17:24:02.607Z,8.53
2023-01-17T17:26:34.701Z,20.40
2023-01-17T17:29:04.498Z,11.23
2023-01-17T17:31:33.608Z,9.40
2023-01-17T17:34:03.737Z,6.23
2023-01-17T17:36:32.903Z,15.97
2023-01-17T17:39:04.972Z,9.90
2023-01-17T17:41:35.837Z,6.53
2023-01-17T17:44:05.888Z,8.80
2023-01-17T17:46:37.590Z,11.27
2023-01-17T17:49:07.201Z,8.70
2023-01-17T17:51:37.429Z,8.23
2023-01-17T17:54:09.733Z,5.67
2023-01-17T17:56:40.898Z,5.67
2023-01-17T17:59:12.772Z,7.40
2023-01-17T18:01:42.346Z,11.90
2023-01-17T18:04:12.600Z,10.27
2023-01-17T18:06:42.619Z,11.30
2023-01-17T18:09:31.923Z,36.83
2023-01-17T18:12:03.412Z,6.53
2023-01-17T18:14:33.545Z,8.03
2023-01-17T18:17:03.291Z,5.67
2023-01-17T18:19:32.230Z,6.10
2023-01-17T18:22:03.677Z,4.13
2023-01-17T18:24:34.134Z,4.30
2023-01-17T18:27:03.356Z,13.87
2023-01-17T18:29:33.480Z,8.37
2023-01-17T18:32:04.263Z,9.27
2023-01-17T18:34:35.833Z,5.80
2023-01-17T18:37:05.118Z,7.13
2023-01-17T18:39:36.003Z,8.47
2023-01-17T18:42:05.917Z,5.87
2023-01-17T18:44:35.028Z,5.70
2023-01-17T18:47:04.907Z,5.63
2023-01-17T18:49:35.205Z,8.30
2023-01-17T18:52:05.421Z,10.40
2023-01-17T18:54:36.416Z,5.17
2023-01-17T18:57:05.744Z,6.20
2023-01-17T18:59:35.201Z,11.47
2023-01-17T19:02:04.516Z,6.60
2023-01-17T19:04:35.907Z,4.37
2023-01-17T19:07:05.098Z,3.23
2023-01-17T19:09:36.284Z,6.43
2023-01-17T19:12:05.442Z,6.17
2023-01-17T19:14:34.525Z,4.90
2023-01-17T19:17:04.732Z,14.33
2023-01-17T19:19:33.788Z,10.97
2023-01-17T19:22:03.118Z,14.37
2023-01-17T19:24:32.358Z,8.70
2023-01-17T19:27:07.160Z,6.10
2023-01-17T19:29:36.508Z,5.17
2023-01-17T19:32:05.484Z,6.87
2023-01-17T19:34:34.661Z,7.47
2023-01-17T19:37:06.550Z,14.87
2023-01-17T19:39:35.805Z,6.60
2023-01-17T19:42:09.527Z,6.07
2023-01-17T19:44:38.502Z,8.40
2023-01-17T19:47:07.560Z,6.60
2023-01-17T19:49:36.668Z,7.87
2023-01-17T19:52:05.913Z,8.53
2023-01-17T19:54:35.285Z,5.40
2023-01-17T19:57:05.708Z,3.87
2023-01-17T19:59:34.695Z,5.20
2023-01-17T20:02:03.883Z,4.03
2023-01-17T20:04:33.088Z,8.30
2023-01-17T20:07:02.976Z,5.03
2023-01-17T20:09:33.217Z,5.13
2023-01-17T20:12:02.453Z,6.83
2023-01-17T20:14:32.929Z,5.10
2023-01-17T20:17:01.895Z,8.27
2023-01-17T20:19:31.267Z,8.53
2023-01-17T20:22:00.118Z,3.97
2023-01-17T20:24:29.179Z,2.50
2023-01-17T20:26:58.587Z,4.13
2023-01-17T20:29:27.610Z,8.87
2023-01-17T20:31:58.067Z,3.87
2023-01-17T20:34:27.259Z,6.50
2023-01-17T20:36:58.209Z,6.17
2023-01-17T20:39:27.198Z,6.03
2023-01-17T20:41:56.251Z,9.40
2023-01-17T20:44:25.771Z,5.70
2023-01-17T20:46:54.807Z,6.33
2023-01-17T20:49:25.287Z,7.53
2023-01-17T20:51:56.315Z,5.33
2023-01-17T20:54:44.845Z,5.37
2023-01-17T20:57:13.814Z,4.67
2023-01-17T20:59:42.870Z,6.00
2023-01-17T21:02:12.082Z,5.13
2023-01-17T21:04:42.601Z,6.40
2023-01-17T21:07:12.036Z,8.87
2023-01-17T21:09:42.965Z,19.33
2023-01-17T21:12:12.145Z,7.30
2023-01-17T21:14:43.167Z,6.63
2023-01-17T21:17:12.443Z,7.43
2023-01-17T21:19:43.354Z,5.27
2023-01-17T21:22:15.049Z,5.97
2023-01-17T21:24:44.311Z,5.33
2023-01-17T21:27:13.178Z,7.87
2023-01-17T21:29:42.076Z,8.10
2023-01-17T21:32:11.217Z,2.67
2023-01-17T21:34:41.654Z,5.50
2023-01-17T21:37:10.601Z,6.50
2023-01-17T21:40:00.492Z,4.73
2023-01-17T21:42:31.417Z,6.90
2023-01-17T21:45:00.639Z,9.23
2023-01-17T21:47:29.674Z,5.53
2023-01-17T21:50:00.156Z,8.50
2023-01-17T21:52:30.261Z,7.03
2023-01-17T21:55:16.443Z,11.40
2023-01-17T21:58:02.803Z,7.33
2023-01-17T22:00:31.978Z,6.00
2023-01-17T22:03:01.102Z,6.37
2023-01-17T22:05:31.508Z,7.30
2023-01-17T22:08:15.704Z,6.87
2023-01-17T22:10:48.252Z,8.63
2023-01-17T22:13:19.180Z,9.27
2023-01-17T22:15:58.733Z,5.83
2023-01-17T22:18:28.190Z,8.20
2023-01-17T22:20:59.223Z,13.13
2023-01-17T22:23:28.723Z,6.30
2023-01-17T22:26:03.418Z,5.73
2023-01-17T22:28:33.396Z,8.00
2023-01-17T22:31:10.804Z,7.90
2023-01-17T22:33:40.949Z,13.03
2023-01-17T22:36:14.951Z,7.30
2023-01-17T22:38:44.778Z,6.43
2023-01-17T22:41:16.323Z,8.37
2023-01-17T22:43:48.052Z,5.67
2023-01-17T22:46:19.842Z,3.50
2023-01-17T22:48:49.136Z,4.10
2023-01-17T22:51:21.490Z,11.43
2023-01-17T22:53:52.262Z,7.83
2023-01-17T22:56:22.976Z,6.40
2023-01-17T22:58:52.375Z,4.10
2023-01-17T23:01:23.280Z,10.23
2023-01-17T23:03:54.811Z,3.70
2023-01-17T23:06:27.496Z,5.83
2023-01-17T23:08:58.085Z,5.67
2023-01-17T23:11:42.807Z,7.60
2023-01-17T23:14:15.219Z,6.27
2023-01-17T23:17:02.737Z,7.07
2023-01-17T23:19:34.575Z,6.70
2023-01-17T23:22:20.483Z,7.30
2023-01-17T23:24:52.193Z,4.27
2023-01-17T23:27:40.116Z,3.03
2023-01-17T23:30:12.767Z,3.53
2023-01-17T23:32:45.250Z,7.70
2023-01-17T23:35:14.417Z,6.50
2023-01-17T23:38:02.322Z,5.47
2023-01-17T23:40:33.265Z,9.90
2023-01-17T23:43:19.212Z,6.77
2023-01-17T23:45:48.256Z,5.93
2023-01-17T23:48:17.710Z,5.37
2023-01-17T23:50:49.327Z,7.73
2023-01-17T23:53:23.348Z,6.90
2023-01-17T23:55:54.466Z,6.87
2023-01-17T23:58:25.477Z,8.77
